Data for 01/25/2016

Time Sea-Level Adjusted Pressure Absolute Pressure Temperature Relative Humidity Dew Point   
(mb) (inHg) (mb) (inHg) (C) (F) (%) (C) (F)
00:05 1019 30.09 848 25.04 -1.2 29.8 70 -6 21.3
00:10 1019 30.09 848 25.04 -1.2 29.9 69 -6.2 20.9
00:15 1019 30.09 848 25.04 -1.2 29.9 69 -6.2 20.8
00:20 1019 30.09 848 25.04 -1.2 29.8 69 -6.2 20.8
00:25 1019 30.09 848 25.04 -1.2 29.8 69 -6.2 20.9
00:30 1019 30.09 848 25.04 -1.3 29.7 69 -6.2 20.8
00:35 1019 30.09 848 25.04 -1.3 29.7 69 -6.2 20.8
00:40 1019 30.09 848 25.04 -1.3 29.6 69 -6.3 20.7
00:45 1019 30.09 848 25.04 -1.3 29.6 69 -6.3 20.7
00:50 1019 30.09 848 25.04 -1.4 29.5 71 -6 21.1
00:55 1019 30.09 848 25.04 -1.4 29.4 69 -6.4 20.6
01:00 1019 30.09 848 25.04 -1.3 29.6 69 -6.3 20.7
01:05 1019 30.09 848 25.04 -1.3 29.7 68 -6.4 20.5
01:10 1019 30.09 848 25.04 -1.3 29.7 71 -5.8 21.6
01:15 1019 30.09 848 25.04 -1.4 29.5 74 -5.5 22.1
01:20 1019 30.09 848 25.04 -1.6 29.2 74 -5.7 21.8
01:25 1019 30.09 848 25.04 -1.6 29.2 75 -5.4 22.3
01:30 1019 30.09 848 25.04 -1.6 29.1 74 -5.6 21.9
01:35 1019 30.09 849 25.07 -1.8 28.8 77 -5.3 22.5
01:40 1019 30.09 849 25.07 -2.2 28 80 -5.2 22.6
01:45 1019 30.09 849 25.07 -2.3 27.8 81 -5.2 22.7
01:50 1019 30.09 849 25.07 -2.5 27.5 84 -4.8 23.3
01:55 1019 30.09 849 25.07 -2.7 27.1 86 -4.8 23.4
02:00 1019 30.09 848 25.04 -2.8 27 86 -4.7 23.5
02:05 1019 30.09 848 25.04 -2.8 27 87 -4.7 23.5
02:10 1019 30.09 848 25.04 -2.9 26.8 88 -4.7 23.6
02:15 1019 30.09 849 25.07 -2.9 26.8 87 -4.7 23.6
02:20 1019 30.09 849 25.07 -2.9 26.8 88 -4.7 23.6
02:25 1019 30.09 849 25.07 -2.8 26.9 87 -4.7 23.5
02:30 1019 30.09 849 25.07 -2.7 27.1 85 -4.8 23.3
02:35 1019 30.09 849 25.07 -2.7 27.1 85 -4.9 23.2
02:40 1020 30.12 849 25.07 -2.7 27.1 84 -5 22.9
02:45 1020 30.12 849 25.07 -2.8 27 84 -5.1 22.7
02:50 1020 30.12 849 25.07 -2.8 27 84 -5.2 22.7
02:55 1020 30.12 849 25.07 -2.8 27 84 -5.2 22.7
03:00 1020 30.12 849 25.07 -2.8 27 83 -5.2 22.6
03:05 1020 30.12 849 25.07 -2.8 27 84 -5.2 22.6
03:10 1020 30.12 849 25.07 -2.9 26.7 85 -5.1 22.8
03:15 1020 30.12 849 25.07 -2.9 26.8 85 -5.1 22.8
03:20 1020 30.12 849 25.07 -2.9 26.7 85 -5.1 22.8
03:25 1020 30.12 849 25.07 -3 26.7 86 -5 22.9
03:30 1020 30.12 849 25.07 -3 26.6 86 -5 23
03:35 1020 30.12 849 25.07 -3 26.5 87 -4.9 23.1
03:40 1020 30.12 849 25.07 -3 26.5 87 -4.9 23.2
03:45 1020 30.12 849 25.07 -3 26.5 88 -4.8 23.4
03:50 1020 30.12 849 25.07 -3.1 26.5 88 -4.8 23.4
03:55 1020 30.12 849 25.07 -3 26.5 88 -4.7 23.5
04:00 1020 30.12 849 25.07 -3.1 26.5 88 -4.8 23.4
04:05 1020 30.12 849 25.07 -3.1 26.5 88 -4.8 23.4
04:10 1020 30.12 849 25.07 -3.1 26.5 88 -4.8 23.3
04:15 1020 30.12 849 25.07 -3 26.6 87 -4.8 23.3
04:20 1020 30.12 849 25.07 -3 26.7 87 -4.9 23.2
04:25 1020 30.12 849 25.07 -3 26.7 86 -5 23
04:30 1020 30.12 850 25.1 -2.9 26.8 85 -5.1 22.9
04:35 1020 30.12 849 25.07 -2.8 26.9 85 -5.1 22.9
04:40 1020 30.12 850 25.1 -2.8 27 84 -5.1 22.8
04:45 1020 30.12 849 25.07 -2.8 26.9 84 -5.2 22.6
04:50 1020 30.12 849 25.07 -2.9 26.8 83 -5.3 22.4
04:55 1020 30.12 849 25.07 -2.8 26.9 82 -5.5 22.1
05:00 1020 30.12 849 25.07 -2.7 27.1 81 -5.5 22.1
05:05 1020 30.12 849 25.07 -2.7 27.2 80 -5.7 21.7
05:10 1020 30.12 849 25.07 -2.6 27.3 79 -5.8 21.6
05:15 1020 30.12 849 25.07 -2.7 27.2 78 -5.9 21.3
05:20 1020 30.12 849 25.07 -2.7 27.1 78 -6 21.2
05:25 1020 30.12 850 25.1 -2.8 27 77 -6.3 20.7
05:30 1020 30.12 850 25.1 -2.8 27 76 -6.5 20.4
05:35 1020 30.12 850 25.1 -2.7 27.2 76 -6.3 20.6
05:40 1020 30.12 850 25.1 -2.6 27.3 74 -6.6 20.2
05:45 1020 30.12 849 25.07 -2.5 27.5 73 -6.7 20
05:50 1020 30.12 849 25.07 -2.4 27.6 73 -6.6 20.1
05:55 1020 30.12 849 25.07 -2.4 27.6 73 -6.6 20.1
06:00 1020 30.12 849 25.07 -2.5 27.5 73 -6.7 20
06:05 1020 30.12 849 25.07 -2.5 27.5 73 -6.7 20
06:10 1020 30.12 849 25.07 -2.4 27.6 73 -6.7 19.9
06:15 1020 30.12 849 25.07 -2.5 27.6 73 -6.6 20.1
06:20 1020 30.12 849 25.07 -2.5 27.6 73 -6.6 20
06:25 1020 30.12 849 25.07 -2.5 27.5 74 -6.5 20.3
06:30 1020 30.12 850 25.1 -2.5 27.4 75 -6.4 20.4
06:35 1020 30.12 850 25.1 -2.6 27.3 75 -6.4 20.6
06:40 1020 30.12 850 25.1 -2.7 27.2 75 -6.4 20.4
06:45 1020 30.12 850 25.1 -2.8 27 76 -6.5 20.3
06:50 1020 30.12 850 25.1 -2.8 26.9 77 -6.3 20.6
06:55 1020 30.12 849 25.07 -2.9 26.7 77 -6.4 20.6
07:00 1020 30.12 849 25.07 -3 26.6 78 -6.3 20.6
07:05 1020 30.12 850 25.1 -3 26.6 78 -6.3 20.6
07:10 1020 30.12 850 25.1 -3 26.6 78 -6.3 20.7
07:15 1020 30.12 850 25.1 -2.9 26.8 78 -6.2 20.8
07:20 1020 30.12 850 25.1 -2.8 26.9 71 -7.3 18.8
07:25 1020 30.12 850 25.1 -2.7 27.2 72 -7.1 19.2
07:30 1020 30.12 850 25.1 -2.6 27.3 70 -7.3 18.9
07:35 1020 30.12 850 25.1 -2.6 27.4 70 -7.3 18.8
07:40 1021 30.15 850 25.1 -2.5 27.4 68 -7.6 18.2
07:45 1021 30.15 850 25.1 -2.5 27.4 67 -7.9 17.9
07:50 1021 30.15 850 25.1 -2.5 27.5 67 -7.9 17.8
07:55 1021 30.15 850 25.1 -2.5 27.4 68 -7.7 18.2
08:00 1021 30.15 850 25.1 -2.6 27.3 69 -7.6 18.3
08:05 1021 30.15 850 25.1 -2.6 27.2 67 -8 17.6
08:10 1021 30.15 850 25.1 -2.7 27.2 67 -7.9 17.7
08:15 1021 30.15 850 25.1 -2.7 27.1 66 -8.2 17.2
08:20 1021 30.15 850 25.1 -2.7 27.1 65 -8.3 17
08:25 1021 30.15 850 25.1 -2.8 27 65 -8.4 16.8
08:30 1021 30.15 850 25.1 -2.9 26.9 64 -8.7 16.4
08:35 1021 30.15 850 25.1 -3 26.7 65 -8.7 16.4
08:40 1021 30.15 850 25.1 -3 26.6 64 -8.8 16.1
08:45 1021 30.15 850 25.1 -3.1 26.5 65 -8.8 16.2
08:50 1021 30.15 850 25.1 -3.1 26.5 64 -8.9 16
08:55 1021 30.15 850 25.1 -3 26.5 63 -9 15.8
09:00 1021 30.15 851 25.13 -3 26.6 65 -8.6 16.4
09:05 1021 30.15 851 25.13 -3.1 26.5 65 -8.7 16.3
09:10 1021 30.15 851 25.13 -3.2 26.3 64 -9 15.8
09:15 1021 30.15 851 25.13 -3.3 26 64 -9.1 15.6
09:20 1021 30.15 851 25.13 -3.3 26.1 63 -9.3 15.2
09:25 1021 30.15 851 25.13 -3.5 25.8 64 -9.3 15.3
09:30 1021 30.15 851 25.13 -3.5 25.7 64 -9.3 15.3
09:35 1021 30.15 851 25.13 -3.4 25.9 64 -9.2 15.4
09:40 1021 30.15 851 25.13 -3.2 26.3 63 -9.2 15.4
09:45 1021 30.15 850 25.1 -3.2 26.3 64 -9.1 15.6
09:50 1021 30.15 850 25.1 -3.3 26.1 64 -9.2 15.4
09:55 1021 30.15 850 25.1 -3.2 26.3 62 -9.4 15.1
10:00 1021 30.15 850 25.1 -2.8 27 60 -9.6 14.8
10:05 1021 30.15 851 25.13 -2.4 27.6 58 -9.6 14.8
10:10 1021 30.15 851 25.13 -2.4 27.7 58 -9.6 14.7
10:15 1021 30.15 851 25.13 -2.6 27.4 58 -9.7 14.6
10:20 1021 30.15 851 25.13 -2.4 27.7 58 -9.5 14.9
10:25 1021 30.15 851 25.13 -2.2 28 57 -9.6 14.7
10:30 1022 30.18 851 25.13 -2.4 27.6 57 -9.8 14.4
10:35 1022 30.18 851 25.13 -2.5 27.5 58 -9.6 14.7
10:40 1022 30.18 851 25.13 -2.4 27.7 57 -9.7 14.5
10:45 1022 30.18 851 25.13 -2.2 28.1 55 -10 14
10:50 1022 30.18 851 25.13 -1.3 29.7 54 -9.5 14.9
10:55 1022 30.18 851 25.13 -1.5 29.3 55 -9.4 15
11:00 1022 30.18 851 25.13 -1.5 29.3 55 -9.5 14.9
11:05 1022 30.18 851 25.13 -1.1 30 53 -9.5 14.9
11:10 1022 30.18 851 25.13 -0.7 30.7 51 -9.7 14.6
11:15 1022 30.18 851 25.13 0 32 48 -9.7 14.5
11:20 1022 30.18 851 25.13 -0.2 31.6 50 -9.5 15
11:25 1022 30.18 851 25.13 -0.7 30.8 59 -7.7 18.1
11:30 1022 30.18 851 25.13 -1 30.2 54 -9.2 15.4
11:35 1022 30.18 851 25.13 -1.1 30 53 -9.5 15
11:40 1022 30.18 851 25.13 -0.4 31.3 49 -9.7 14.5
11:45 1022 30.18 851 25.13 -0.3 31.5 50 -9.4 15.1
11:50 1022 30.18 851 25.13 -0.7 30.7 53 -9.2 15.5
11:55 1022 30.18 851 25.13 -0.4 31.3 51 -9.4 15
12:00 1022 30.18 851 25.13 -0.2 31.7 49 -9.6 14.7
12:05 1022 30.18 851 25.13 0.4 32.6 47 -9.8 14.4
12:10 1022 30.18 851 25.13 0.9 33.6 45 -9.6 14.7
12:15 1022 30.18 851 25.13 0.9 33.5 46 -9.6 14.8
12:20 1022 30.18 851 25.13 -0 32 46 -10.2 13.7
12:25 1022 30.18 851 25.13 -0.2 31.7 49 -9.5 14.8
12:30 1022 30.18 851 25.13 -0 31.9 47 -10.1 13.9
12:35 1022 30.18 851 25.13 0.2 32.3 48 -9.7 14.5
12:40 1022 30.18 851 25.13 0.7 33.3 44 -10.1 13.7
12:45 1022 30.18 851 25.13 1 33.7 44 -9.9 14.2
12:50 1022 30.18 851 25.13 0.5 32.8 47 -9.5 14.8
12:55 1022 30.18 851 25.13 0.5 32.8 46 -9.9 14.2
13:00 1022 30.18 851 25.13 1 33.8 43 -10.1 13.8
13:05 1022 30.18 851 25.13 1.4 34.5 43 -9.7 14.5
13:10 1022 30.18 851 25.13 1.9 35.4 42 -9.6 14.7
13:15 1022 30.18 851 25.13 1.5 34.7 43 -9.6 14.6
13:20 1022 30.18 851 25.13 1.3 34.3 44 -9.6 14.7
13:25 1022 30.18 851 25.13 0.9 33.5 45 -9.7 14.6
13:30 1022 30.18 851 25.13 1.4 34.5 43 -9.8 14.4
13:35 1022 30.18 851 25.13 2 35.7 42 -9.5 14.9
13:40 1022 30.18 851 25.13 2 35.6 41 -9.8 14.4
13:45 1022 30.18 851 25.13 1.8 35.3 42 -9.6 14.7
13:50 1022 30.18 851 25.13 1.7 35 44 -9.2 15.4
13:55 1022 30.18 851 25.13 1.2 34.1 45 -9.5 14.9
14:00 1022 30.18 851 25.13 1.4 34.5 44 -9.6 14.7
14:05 1022 30.18 851 25.13 1.6 34.9 43 -9.6 14.7
14:10 1022 30.18 851 25.13 1.8 35.2 41 -10.1 13.7
14:15 1022 30.18 851 25.13 2 35.6 41 -10.1 13.9
14:20 1021 30.15 851 25.13 2 35.6 42 -9.7 14.5
14:25 1021 30.15 851 25.13 2.2 35.9 39 -10.3 13.5
14:30 1021 30.15 851 25.13 1.6 34.9 44 -9.4 15
14:35 1021 30.15 851 25.13 1 33.8 40 -11.1 12
14:40 1021 30.15 851 25.13 1.7 35.1 39 -10.7 12.8
14:45 1021 30.15 850 25.1 2.1 35.8 39 -10.5 13.2
14:50 1021 30.15 851 25.13 2.1 35.7 42 -9.5 14.9
14:55 1021 30.15 851 25.13 2 35.7 41 -9.9 14.2
15:00 1021 30.15 851 25.13 2.1 35.9 40 -10.1 13.9
15:05 1021 30.15 851 25.13 2.4 36.3 39 -10.2 13.7
15:10 1021 30.15 851 25.13 2.3 36.1 40 -9.9 14.2
15:15 1021 30.15 851 25.13 2.2 36 39 -10.2 13.6
15:20 1021 30.15 851 25.13 2.3 36.1 39 -10.2 13.7
15:25 1021 30.15 851 25.13 2.2 35.9 41 -9.7 14.6
15:30 1021 30.15 851 25.13 1.8 35.3 41 -10 14
15:35 1021 30.15 851 25.13 1.8 35.3 40 -10.5 13
15:40 1021 30.15 851 25.13 1.8 35.2 41 -10.2 13.7
15:45 1021 30.15 851 25.13 2 35.6 39 -10.6 13
15:50 1021 30.15 851 25.13 1.7 35 40 -10.5 13
15:55 1021 30.15 851 25.13 1.8 35.3 40 -10.5 13.1
16:00 1021 30.15 851 25.13 2.2 36 40 -10 14
16:05 1022 30.18 851 25.13 0.8 33.4 47 -9.3 15.3
16:10 1022 30.18 851 25.13 -0.2 31.6 48 -9.9 14.1
16:15 1021 30.15 851 25.13 -0.5 31.1 48 -10.1 13.8
16:20 1021 30.15 851 25.13 -0.7 30.8 48 -10.4 13.3
16:25 1021 30.15 851 25.13 -0.9 30.4 48 -10.6 13
16:30 1021 30.15 851 25.13 -0.8 30.5 48 -10.5 13
16:35 1021 30.15 851 25.13 -0.5 31.1 47 -10.5 13.1
16:40 1021 30.15 851 25.13 -0.4 31.4 46 -10.6 12.9
16:45 1022 30.18 851 25.13 0.3 32.6 44 -10.6 12.9
16:50 1022 30.18 851 25.13 0.5 32.9 46 -9.9 14.1
16:55 1022 30.18 851 25.13 0.1 32.1 46 -10.3 13.4
17:00 1022 30.18 851 25.13 -0 32 45 -10.6 13
17:05 1022 30.18 851 25.13 0.2 32.4 44 -10.7 12.7
17:10 1022 30.18 851 25.13 0.5 33 43 -10.5 13
17:15 1022 30.18 851 25.13 0.5 32.9 43 -10.7 12.8
17:20 1022 30.18 851 25.13 0.4 32.8 43 -10.6 12.9
17:25 1022 30.18 851 25.13 0.5 32.9 44 -10.3 13.4
17:30 1022 30.18 851 25.13 0.4 32.8 44 -10.6 12.9
17:35 1022 30.18 851 25.13 0.5 32.9 42 -10.9 12.3
17:40 1022 30.18 851 25.13 0.6 33.1 44 -10.4 13.2
17:45 1022 30.18 851 25.13 -0.7 30.8 46 -10.9 12.4
17:50 1022 30.18 851 25.13 -1.2 29.8 46 -11.3 11.6
17:55 1022 30.18 851 25.13 -1.1 30.1 44 -11.8 10.8
18:00 1022 30.18 851 25.13 -0.8 30.6 43 -11.9 10.6
18:05 1022 30.18 851 25.13 -0.8 30.6 45 -11.3 11.7
18:10 1022 30.18 851 25.13 -1 30.2 48 -10.7 12.8
18:15 1022 30.18 851 25.13 -1.7 29 52 -10.3 13.4
18:20 1022 30.18 851 25.13 -2.2 28 53 -10.5 13.2
18:25 1022 30.18 851 25.13 -2.3 27.9 54 -10.4 13.3
18:30 1022 30.18 852 25.16 -2.5 27.5 55 -10.4 13.3
18:35 1022 30.18 852 25.16 -2.7 27.1 56 -10.3 13.5
18:40 1022 30.18 852 25.16 -2.8 26.9 57 -10.2 13.7
18:45 1022 30.18 852 25.16 -2.8 26.9 57 -10.2 13.7
18:50 1022 30.18 852 25.16 -2.8 27 57 -10.1 13.8
18:55 1022 30.18 852 25.16 -2.8 26.9 58 -10.1 13.9
19:00 1022 30.18 852 25.16 -3 26.5 59 -9.9 14.1
19:05 1023 30.21 852 25.16 -3.5 25.8 59 -10.5 13.2
19:10 1023 30.21 852 25.16 -3.5 25.7 60 -10.3 13.5
19:15 1023 30.21 852 25.16 -4 24.8 61 -10.4 13.3
19:20 1023 30.21 852 25.16 -4.3 24.3 62 -10.5 13.2
19:25 1023 30.21 852 25.16 -4.2 24.5 61 -10.6 13
19:30 1023 30.21 852 25.16 -4.2 24.4 62 -10.5 13.1
19:35 1023 30.21 852 25.16 -4.3 24.2 62 -10.6 13
19:40 1023 30.21 852 25.16 -4.4 24.1 61 -10.9 12.4
19:45 1023 30.21 852 25.16 -4.1 24.6 60 -10.8 12.5
19:50 1023 30.21 852 25.16 -4 24.8 60 -10.7 12.7
19:55 1023 30.21 852 25.16 -4.2 24.4 60 -10.9 12.5
20:00 1023 30.21 852 25.16 -4.3 24.3 61 -10.8 12.6
20:05 1023 30.21 852 25.16 -4.2 24.4 60 -10.8 12.5
20:10 1023 30.21 852 25.16 -4.2 24.4 59 -11 12.2
20:15 1023 30.21 852 25.16 -4.6 23.8 61 -11 12.2
20:20 1023 30.21 852 25.16 -4.7 23.6 61 -11.1 12
20:25 1023 30.21 852 25.16 -4.5 23.8 61 -11 12.1
20:30 1023 30.21 852 25.16 -4.8 23.4 62 -11 12.2
20:35 1023 30.21 852 25.16 -5 22.9 62 -11.3 11.7
20:40 1023 30.21 852 25.16 -5.1 22.9 61 -11.5 11.3
20:45 1023 30.21 852 25.16 -5.1 22.9 62 -11.4 11.6
20:50 1023 30.21 852 25.16 -5.1 22.9 61 -11.4 11.5
20:55 1023 30.21 852 25.16 -4.9 23.1 61 -11.4 11.5
21:00 1023 30.21 852 25.16 -4.8 23.3 59 -11.6 11.2
21:05 1023 30.21 852 25.16 -4.8 23.3 61 -11.3 11.7
21:10 1023 30.21 852 25.16 -5 23.1 61 -11.4 11.5
21:15 1023 30.21 852 25.16 -5.1 22.9 62 -11.3 11.6
21:20 1023 30.21 852 25.16 -4.9 23.1 61 -11.4 11.5
21:25 1023 30.21 852 25.16 -4.7 23.5 61 -11.1 12
21:30 1023 30.21 852 25.16 -4.7 23.5 60 -11.3 11.7
21:35 1023 30.21 852 25.16 -4.6 23.7 59 -11.4 11.4
21:40 1023 30.21 852 25.16 -4.7 23.6 62 -10.9 12.3
21:45 1023 30.21 852 25.16 -4.7 23.6 59 -11.4 11.5
21:50 1023 30.21 852 25.16 -5 22.9 60 -11.6 11.2
21:55 1023 30.21 852 25.16 -5.3 22.4 62 -11.4 11.4
22:00 1023 30.21 852 25.16 -5.4 22.2 61 -11.9 10.6
22:05 1023 30.21 852 25.16 -5.4 22.3 62 -11.7 11
22:10 1023 30.21 852 25.16 -5.4 22.3 61 -11.8 10.7
22:15 1023 30.21 852 25.16 -5.6 22 63 -11.6 11.1
22:20 1023 30.21 852 25.16 -5.6 22 61 -11.9 10.5
22:25 1023 30.21 852 25.16 -5.8 21.6 62 -11.9 10.6
22:30 1023 30.21 852 25.16 -5.9 21.3 63 -11.9 10.5
22:35 1023 30.21 852 25.16 -6.2 20.9 63 -12.1 10.3
22:40 1023 30.21 852 25.16 -6.4 20.5 64 -12.2 10.1
22:45 1023 30.21 852 25.16 -6.4 20.5 64 -12.2 10.1
22:50 1023 30.21 852 25.16 -6.3 20.7 63 -12.3 9.8
22:55 1023 30.21 852 25.16 -6.3 20.7 62 -12.4 9.7
23:00 1023 30.21 852 25.16 -6.2 20.8 63 -12.2 10.1
23:05 1023 30.21 852 25.16 -6.2 20.9 63 -12.1 10.3
23:10 1023 30.21 852 25.16 -6.1 21.1 63 -12.1 10.2
23:15 1023 30.21 852 25.16 -6.2 20.8 65 -11.8 10.7
23:20 1023 30.21 852 25.16 -6.3 20.6 61 -12.6 9.3
23:25 1023 30.21 852 25.16 -6.6 20.2 61 -12.9 8.7
23:30 1023 30.21 852 25.16 -6.6 20.1 64 -12.2 10
23:35 1023 30.21 852 25.16 -6.2 20.8 63 -12.2 10
23:40 1023 30.21 852 25.16 -6.1 21.1 63 -12.1 10.2
23:45 1023 30.21 852 25.16 -6.1 20.9 60 -12.6 9.3
23:50 1023 30.21 853 25.19 -6.5 20.4 62 -12.6 9.3
23:55 1023 30.21 853 25.19 -6.7 20 62 -12.9 8.8
24:00 1023 30.21 853 25.19 -6.9 19.5 64 -12.7 9.2